Time;durP1;ratioP1;P1;durP2;ratioP2;P2;SDS_P1;SDS_P2;PMS_P1;PMS_P2;Temp;Humidity;BMP_temperature;BMP_pressure;BME280_temperature;BME280_humidity;BME280_pressure;Samples;Min_cycle;Max_cycle;Signal;HPM_P1;HPM_P2
2022/02/17 00:01:09;;;;;;;0.22;0.13;;;;;;;;;;4428873;32;20056;-55
2022/02/17 00:03:38;;;;;;;0.10;0.10;;;;;;;;;;4438433;32;20094;-53
2022/02/17 00:06:06;;;;;;;0.10;0.10;;;;;;;;;;4433581;32;20327;-55
2022/02/17 00:08:34;;;;;;;0.10;0.10;;;;;;;;;;4443546;32;20061;-54
2022/02/17 00:11:03;;;;;;;0.10;0.10;;;;;;;;;;4448256;32;20041;-52
2022/02/17 00:13:31;;;;;;;0.10;0.10;;;;;;;;;;4432450;32;20038;-54
2022/02/17 00:15:59;;;;;;;0.43;0.10;;;;;;;;;;4440247;32;20446;-56
2022/02/17 00:18:28;;;;;;;0.10;0.10;;;;;;;;;;4434766;32;20081;-52
2022/02/17 00:20:56;;;;;;;0.13;0.10;;;;;;;;;;4444786;32;20455;-54
2022/02/17 00:23:25;;;;;;;0.10;0.10;;;;;;;;;;4437186;32;20072;-54
2022/02/17 00:25:56;;;;;;;0.10;0.10;;;;;;;;;;4436436;32;20046;-54
2022/02/17 00:28:24;;;;;;;0.10;0.10;;;;;;;;;;4436241;32;20049;-54
2022/02/17 00:30:54;;;;;;;0.28;0.10;;;;;;;;;;4437075;32;20447;-52
2022/02/17 00:33:23;;;;;;;0.10;0.10;;;;;;;;;;4434043;32;20083;-54
2022/02/17 00:35:51;;;;;;;0.82;0.10;;;;;;;;;;4441719;32;20058;-55
2022/02/17 00:38:19;;;;;;;0.17;0.10;;;;;;;;;;4435761;32;20094;-52
2022/02/17 00:40:48;;;;;;;0.10;0.10;;;;;;;;;;4432879;32;20477;-56
2022/02/17 00:43:16;;;;;;;0.10;0.10;;;;;;;;;;4429216;32;20069;-56
2022/02/17 00:45:44;;;;;;;0.10;0.10;;;;;;;;;;4434639;32;20068;-56
2022/02/17 00:48:14;;;;;;;0.10;0.10;;;;;;;;;;4436197;32;20046;-52
2022/02/17 00:50:43;;;;;;;0.10;0.10;;;;;;;;;;4438433;32;20122;-55
2022/02/17 00:53:12;;;;;;;0.10;0.10;;;;;;;;;;4441044;32;20062;-54
2022/02/17 00:55:40;;;;;;;0.10;0.10;;;;;;;;;;4427935;32;20052;-53
2022/02/17 00:58:08;;;;;;;0.10;0.10;;;;;;;;;;4424070;32;20077;-54
2022/02/17 01:00:37;;;;;;;0.10;0.10;;;;;;;;;;4437975;32;20092;-56
2022/02/17 01:03:06;;;;;;;0.10;0.10;;;;;;;;;;4435512;32;20030;-55
2022/02/17 01:05:34;;;;;;;0.10;0.10;;;;;;;;;;4433890;32;20091;-52
2022/02/17 01:08:03;;;;;;;0.13;0.10;;;;;;;;;;4435165;32;20105;-53
2022/02/17 01:10:32;;;;;;;0.10;0.10;;;;;;;;;;4440734;32;20364;-56
2022/02/17 01:13:00;;;;;;;0.10;0.10;;;;;;;;;;4443272;32;20054;-56
2022/02/17 01:15:30;;;;;;;0.10;0.10;;;;;;;;;;4427017;32;20034;-56
2022/02/17 01:17:59;;;;;;;0.10;0.10;;;;;;;;;;4429924;32;20125;-53
2022/02/17 01:20:30;;;;;;;0.10;0.10;;;;;;;;;;4437754;32;20048;-53
2022/02/17 01:22:59;;;;;;;0.10;0.10;;;;;;;;;;4442781;32;20104;-56
2022/02/17 01:25:28;;;;;;;0.10;0.10;;;;;;;;;;4433959;32;20037;-53
2022/02/17 01:27:57;;;;;;;0.10;0.10;;;;;;;;;;4439846;32;20061;-52
2022/02/17 01:30:27;;;;;;;0.10;0.10;;;;;;;;;;4441221;32;20391;-54
2022/02/17 01:32:55;;;;;;;0.10;0.10;;;;;;;;;;4433522;32;20060;-53
2022/02/17 01:35:24;;;;;;;0.00;0.00;;;;;;;;;;4444212;32;20088;-53
2022/02/17 01:37:53;;;;;;;0.20;0.10;;;;;;;;;;4431571;32;20050;-55
2022/02/17 01:40:22;;;;;;;0.10;0.10;;;;;;;;;;4440876;32;20065;-55
2022/02/17 01:42:50;;;;;;;0.10;0.10;;;;;;;;;;4438830;32;20097;-55
2022/02/17 01:45:19;;;;;;;0.10;0.10;;;;;;;;;;4426882;32;20405;-53
2022/02/17 01:47:48;;;;;;;0.10;0.10;;;;;;;;;;4433068;32;20041;-56
2022/02/17 01:50:18;;;;;;;0.10;0.10;;;;;;;;;;4433585;32;20039;-55
2022/02/17 01:52:46;;;;;;;0.10;0.10;;;;;;;;;;4426662;32;20109;-53
2022/02/17 01:55:15;;;;;;;0.20;0.17;;;;;;;;;;4432935;32;20052;-55
2022/02/17 01:57:44;;;;;;;0.10;0.10;;;;;;;;;;4429253;32;20061;-55
2022/02/17 02:00:14;;;;;;;0.10;0.10;;;;;;;;;;4428380;32;20131;-56
2022/02/17 02:02:46;;;;;;;0.10;0.10;;;;;;;;;;4440074;32;20045;-54
2022/02/17 02:05:16;;;;;;;0.22;0.10;;;;;;;;;;4437011;32;20153;-54
2022/02/17 02:07:44;;;;;;;0.17;0.10;;;;;;;;;;4443938;32;20114;-53
2022/02/17 02:10:19;;;;;;;0.10;0.10;;;;;;;;;;4424364;32;20065;-52
2022/02/17 02:12:47;;;;;;;0.37;0.10;;;;;;;;;;4451404;32;20058;-53
2022/02/17 02:15:16;;;;;;;0.20;0.10;;;;;;;;;;4433870;32;20100;-56
2022/02/17 02:17:45;;;;;;;0.10;0.10;;;;;;;;;;4443417;32;20055;-56
2022/02/17 02:20:15;;;;;;;0.10;0.10;;;;;;;;;;4434360;32;20056;-53
2022/02/17 02:22:44;;;;;;;0.10;0.10;;;;;;;;;;4435981;32;20110;-55
2022/02/17 02:25:13;;;;;;;0.10;0.10;;;;;;;;;;4441942;32;20065;-56
2022/02/17 02:27:41;;;;;;;0.10;0.10;;;;;;;;;;4439785;32;20098;-53
2022/02/17 02:30:10;;;;;;;0.00;0.00;;;;;;;;;;4430900;32;20095;-55
2022/02/17 02:32:38;;;;;;;0.10;0.10;;;;;;;;;;4442987;32;20154;-56
2022/02/17 02:35:07;;;;;;;0.10;0.10;;;;;;;;;;4436435;32;20030;-52
2022/02/17 02:37:36;;;;;;;0.10;0.10;;;;;;;;;;4439900;32;20459;-55
2022/02/17 02:40:05;;;;;;;0.10;0.10;;;;;;;;;;4443564;32;20041;-53
2022/02/17 02:42:33;;;;;;;0.10;0.10;;;;;;;;;;4441044;32;20476;-55
2022/02/17 02:45:03;;;;;;;0.20;0.10;;;;;;;;;;4435595;32;20050;-52
2022/02/17 02:47:31;;;;;;;0.10;0.10;;;;;;;;;;4430053;32;20082;-53
2022/02/17 02:50:00;;;;;;;0.10;0.10;;;;;;;;;;4440022;32;20073;-52
2022/02/17 02:52:30;;;;;;;0.20;0.20;;;;;;;;;;4435298;32;20046;-53
2022/02/17 02:54:58;;;;;;;0.10;0.10;;;;;;;;;;4435808;32;20042;-55
2022/02/17 02:57:27;;;;;;;0.10;0.10;;;;;;;;;;4441296;32;20499;-54
2022/02/17 02:59:55;;;;;;;0.73;0.10;;;;;;;;;;4429500;32;20057;-56
2022/02/17 03:02:24;;;;;;;0.10;0.10;;;;;;;;;;4433214;32;20100;-56
2022/02/17 03:04:52;;;;;;;0.10;0.10;;;;;;;;;;4429732;32;20048;-56
2022/02/17 03:07:21;;;;;;;0.10;0.10;;;;;;;;;;4430607;32;20048;-52
2022/02/17 03:09:49;;;;;;;0.10;0.10;;;;;;;;;;4440873;32;20157;-54
2022/02/17 03:12:18;;;;;;;0.10;0.10;;;;;;;;;;4434373;32;20069;-56
2022/02/17 03:14:47;;;;;;;0.10;0.10;;;;;;;;;;4427521;32;20421;-52
2022/02/17 03:17:15;;;;;;;0.10;0.10;;;;;;;;;;4449101;32;20089;-53
2022/02/17 03:19:44;;;;;;;0.10;0.10;;;;;;;;;;4436880;32;20080;-55
2022/02/17 03:22:13;;;;;;;0.10;0.10;;;;;;;;;;4440045;32;20042;-55
2022/02/17 03:24:42;;;;;;;0.10;0.10;;;;;;;;;;4441883;32;20072;-52
2022/02/17 03:27:10;;;;;;;0.20;0.08;;;;;;;;;;4446404;32;20148;-53
2022/02/17 03:29:38;;;;;;;0.10;0.10;;;;;;;;;;4438892;32;20038;-52
2022/02/17 03:32:07;;;;;;;0.10;0.10;;;;;;;;;;4441824;32;20101;-53
2022/02/17 03:34:37;;;;;;;0.10;0.10;;;;;;;;;;4441560;32;20056;-57
2022/02/17 03:37:05;;;;;;;0.10;0.10;;;;;;;;;;4446111;32;20062;-55
2022/02/17 03:39:34;;;;;;;0.35;0.10;;;;;;;;;;4433354;32;20406;-53
2022/02/17 03:42:02;;;;;;;0.15;0.10;;;;;;;;;;4439273;32;20083;-54
2022/02/17 03:44:31;;;;;;;0.10;0.10;;;;;;;;;;4434650;32;20433;-52
2022/02/17 03:47:01;;;;;;;0.10;0.10;;;;;;;;;;4434073;32;20433;-53
2022/02/17 03:49:32;;;;;;;0.10;0.10;;;;;;;;;;4437862;32;20433;-54
2022/02/17 03:52:01;;;;;;;0.08;0.08;;;;;;;;;;4424303;32;20330;-52
2022/02/17 03:54:30;;;;;;;0.22;0.10;;;;;;;;;;4430638;32;20100;-55
2022/02/17 03:56:59;;;;;;;0.10;0.10;;;;;;;;;;4435063;32;20535;-56
2022/02/17 03:59:28;;;;;;;0.28;0.20;;;;;;;;;;4430354;32;20464;-56
2022/02/17 04:01:59;;;;;;;0.10;0.10;;;;;;;;;;4436056;32;20035;-54
2022/02/17 04:04:28;;;;;;;0.10;0.10;;;;;;;;;;4432462;32;20913;-54
2022/02/17 04:06:59;;;;;;;0.10;0.10;;;;;;;;;;4433564;32;20034;-52
2022/02/17 04:09:27;;;;;;;0.10;0.10;;;;;;;;;;4439645;32;20052;-55
2022/02/17 04:11:55;;;;;;;0.13;0.10;;;;;;;;;;4439446;32;20046;-53
2022/02/17 04:14:25;;;;;;;0.10;0.10;;;;;;;;;;4435967;32;20050;-55
2022/02/17 04:16:54;;;;;;;0.20;0.10;;;;;;;;;;4448988;32;20436;-53
2022/02/17 04:19:23;;;;;;;0.10;0.10;;;;;;;;;;4443542;32;20437;-55
2022/02/17 04:21:54;;;;;;;0.25;0.10;;;;;;;;;;4441130;32;20072;-55
2022/02/17 04:24:23;;;;;;;0.10;0.10;;;;;;;;;;4440244;32;20093;-53
2022/02/17 04:26:52;;;;;;;0.28;0.20;;;;;;;;;;4435955;32;20056;-53
2022/02/17 04:29:20;;;;;;;0.10;0.10;;;;;;;;;;4436239;32;20104;-55
2022/02/17 04:31:49;;;;;;;0.10;0.10;;;;;;;;;;4437706;32;20041;-55
2022/02/17 04:34:18;;;;;;;0.10;0.10;;;;;;;;;;4436657;32;20038;-52
2022/02/17 04:36:51;;;;;;;0.10;0.10;;;;;;;;;;4431660;32;20380;-55
2022/02/17 04:39:21;;;;;;;0.13;0.10;;;;;;;;;;4432655;32;20117;-53
2022/02/17 04:44:36;;;;;;;0.10;0.10;;;;;;;;;;4442562;32;20038;-52
2022/02/17 04:47:04;;;;;;;0.15;0.13;;;;;;;;;;4438386;32;20069;-54
2022/02/17 04:49:33;;;;;;;0.10;0.10;;;;;;;;;;4438073;32;20038;-54
2022/02/17 04:52:02;;;;;;;0.10;0.10;;;;;;;;;;4434919;32;20072;-53
2022/02/17 04:54:30;;;;;;;0.25;0.10;;;;;;;;;;4438081;32;20481;-54
2022/02/17 04:57:00;;;;;;;0.10;0.10;;;;;;;;;;4436182;32;20074;-55
2022/02/17 04:59:29;;;;;;;0.25;0.10;;;;;;;;;;4438392;32;20053;-53
2022/02/17 05:01:58;;;;;;;0.10;0.10;;;;;;;;;;4429099;32;20037;-54
2022/02/17 05:04:27;;;;;;;0.10;0.10;;;;;;;;;;4448486;32;20050;-51
2022/02/17 05:06:58;;;;;;;0.15;0.15;;;;;;;;;;4418812;32;20115;-51
2022/02/17 05:09:26;;;;;;;0.20;0.10;;;;;;;;;;4436202;32;20107;-54
2022/02/17 05:11:55;;;;;;;0.10;0.10;;;;;;;;;;4442546;32;20550;-53
2022/02/17 05:14:24;;;;;;;0.10;0.10;;;;;;;;;;4442553;32;20101;-54
2022/02/17 05:16:53;;;;;;;0.20;0.20;;;;;;;;;;4435203;32;20086;-50
2022/02/17 05:19:23;;;;;;;0.17;0.17;;;;;;;;;;4434683;32;20064;-52
2022/02/17 05:21:53;;;;;;;0.10;0.10;;;;;;;;;;4443075;32;20087;-51
2022/02/17 05:24:22;;;;;;;0.43;0.20;;;;;;;;;;4427545;32;20051;-55
2022/02/17 05:26:50;;;;;;;0.10;0.10;;;;;;;;;;4434068;32;20104;-55
2022/02/17 05:29:20;;;;;;;0.10;0.10;;;;;;;;;;4442246;32;20073;-52
2022/02/17 05:31:51;;;;;;;0.10;0.10;;;;;;;;;;4433674;32;20446;-51
2022/02/17 05:34:20;;;;;;;0.10;0.10;;;;;;;;;;4434840;32;20079;-54
2022/02/17 05:36:49;;;;;;;0.32;0.10;;;;;;;;;;4441266;32;20056;-53
2022/02/17 05:39:18;;;;;;;0.25;0.20;;;;;;;;;;4431997;32;20033;-53
2022/02/17 05:41:51;;;;;;;0.30;0.20;;;;;;;;;;4431642;32;20063;-52
2022/02/17 05:44:20;;;;;;;0.55;0.30;;;;;;;;;;4430234;32;20105;-51
2022/02/17 05:46:48;;;;;;;0.20;0.20;;;;;;;;;;4439371;32;20033;-51
2022/02/17 05:49:16;;;;;;;0.28;0.10;;;;;;;;;;4434364;32;20022;-53
2022/02/17 05:51:45;;;;;;;0.25;0.25;;;;;;;;;;4436454;32;20063;-51
2022/02/17 05:54:13;;;;;;;0.45;0.22;;;;;;;;;;4431194;32;20098;-53
2022/02/17 05:56:42;;;;;;;0.98;0.37;;;;;;;;;;4428769;32;20052;-52
2022/02/17 05:59:10;;;;;;;0.22;0.22;;;;;;;;;;4429905;32;20141;-54
2022/02/17 06:01:39;;;;;;;0.45;0.20;;;;;;;;;;4432590;32;20064;-55
2022/02/17 06:04:11;;;;;;;0.47;0.20;;;;;;;;;;4437096;32;20107;-52
2022/02/17 06:06:39;;;;;;;1.12;0.20;;;;;;;;;;4435323;32;20038;-53
2022/02/17 06:09:07;;;;;;;0.32;0.30;;;;;;;;;;4428875;32;20071;-54
2022/02/17 06:11:36;;;;;;;0.25;0.22;;;;;;;;;;4440207;32;20046;-50
2022/02/17 06:14:08;;;;;;;0.77;0.20;;;;;;;;;;4431235;32;20466;-50
2022/02/17 06:16:37;;;;;;;0.35;0.28;;;;;;;;;;4439642;32;20029;-52
2022/02/17 06:19:05;;;;;;;0.50;0.20;;;;;;;;;;4427079;32;20042;-53
2022/02/17 06:21:33;;;;;;;0.28;0.17;;;;;;;;;;4438162;32;20037;-51
2022/02/17 06:24:01;;;;;;;2.58;0.30;;;;;;;;;;4432582;32;20095;-51
2022/02/17 06:26:30;;;;;;;0.85;0.45;;;;;;;;;;4442978;32;20097;-50
2022/02/17 06:28:58;;;;;;;0.20;0.20;;;;;;;;;;4430847;32;20038;-51
2022/02/17 06:31:27;;;;;;;0.68;0.20;;;;;;;;;;4431309;32;20039;-53
2022/02/17 06:33:58;;;;;;;0.30;0.20;;;;;;;;;;4445677;32;20393;-54
2022/02/17 06:36:27;;;;;;;0.40;0.20;;;;;;;;;;4439209;32;20041;-51
2022/02/17 06:38:55;;;;;;;0.35;0.20;;;;;;;;;;4437373;32;20046;-54
2022/02/17 06:41:25;;;;;;;0.45;0.20;;;;;;;;;;4433596;32;20034;-51
2022/02/17 06:43:53;;;;;;;0.95;0.30;;;;;;;;;;4436821;32;20054;-51
2022/02/17 06:46:21;;;;;;;0.50;0.30;;;;;;;;;;4440100;32;20069;-52
2022/02/17 06:48:49;;;;;;;0.30;0.30;;;;;;;;;;4436655;32;20086;-51
2022/02/17 06:51:18;;;;;;;0.30;0.30;;;;;;;;;;4444112;32;20430;-52
2022/02/17 06:53:47;;;;;;;0.30;0.30;;;;;;;;;;4436379;32;20038;-50
2022/02/17 06:56:15;;;;;;;0.37;0.20;;;;;;;;;;4431005;32;20042;-53
2022/02/17 06:58:44;;;;;;;0.68;0.30;;;;;;;;;;4438431;32;20508;-52
2022/02/17 07:01:12;;;;;;;0.25;0.20;;;;;;;;;;4435850;32;20097;-54
2022/02/17 07:03:40;;;;;;;0.50;0.20;;;;;;;;;;4431832;32;20156;-52
2022/02/17 07:06:09;;;;;;;0.35;0.35;;;;;;;;;;4433191;32;20369;-51
2022/02/17 07:08:39;;;;;;;0.40;0.20;;;;;;;;;;4435344;32;20402;-51
2022/02/17 07:11:10;;;;;;;0.20;0.20;;;;;;;;;;4439100;32;20090;-52
2022/02/17 07:13:38;;;;;;;0.35;0.20;;;;;;;;;;4435401;32;20399;-50
2022/02/17 07:16:10;;;;;;;0.80;0.20;;;;;;;;;;4440175;32;20049;-51
2022/02/17 07:18:42;;;;;;;0.40;0.20;;;;;;;;;;4433733;32;20041;-51
2022/02/17 07:21:15;;;;;;;0.47;0.20;;;;;;;;;;4439907;32;20046;-52
2022/02/17 07:23:43;;;;;;;1.75;0.30;;;;;;;;;;4434212;32;20117;-52
2022/02/17 07:26:12;;;;;;;5.05;0.20;;;;;;;;;;4444932;32;20152;-52
2022/02/17 07:28:41;;;;;;;4.75;0.20;;;;;;;;;;4440354;32;20042;-51
2022/02/17 07:31:10;;;;;;;2.62;0.20;;;;;;;;;;4438434;32;20037;-53
2022/02/17 07:33:39;;;;;;;0.80;0.20;;;;;;;;;;4427956;32;20096;-51
2022/02/17 07:36:09;;;;;;;0.10;0.10;;;;;;;;;;4447396;32;20045;-51
2022/02/17 07:38:49;;;;;;;0.17;0.15;;;;;;;;;;4440157;32;20061;-51
2022/02/17 07:41:17;;;;;;;2.03;0.30;;;;;;;;;;4440005;32;20038;-52
2022/02/17 07:43:45;;;;;;;0.15;0.10;;;;;;;;;;4439252;32;20056;-51
2022/02/17 07:46:18;;;;;;;0.55;0.10;;;;;;;;;;4439718;32;20050;-51
2022/02/17 07:48:46;;;;;;;0.25;0.10;;;;;;;;;;4446982;32;20045;-51
2022/02/17 07:51:16;;;;;;;1.70;0.20;;;;;;;;;;4435124;32;20102;-52
2022/02/17 07:53:45;;;;;;;1.17;0.20;;;;;;;;;;4433329;32;20087;-55
2022/02/17 07:56:15;;;;;;;0.20;0.10;;;;;;;;;;4439914;32;20112;-53
2022/02/17 07:58:44;;;;;;;0.55;0.20;;;;;;;;;;4441102;32;20393;-55
2022/02/17 08:01:15;;;;;;;0.20;0.20;;;;;;;;;;4432699;32;20090;-53
2022/02/17 08:03:43;;;;;;;0.95;0.20;;;;;;;;;;4443379;32;20456;-51
2022/02/17 08:06:12;;;;;;;0.93;0.20;;;;;;;;;;4443076;32;20100;-55
2022/02/17 08:08:57;;;;;;;0.15;0.15;;;;;;;;;;4441894;32;20046;-52
2022/02/17 08:11:25;;;;;;;0.15;0.13;;;;;;;;;;4446387;32;20072;-54
2022/02/17 08:13:55;;;;;;;0.35;0.20;;;;;;;;;;4419361;32;20034;-56
2022/02/17 08:16:24;;;;;;;0.47;0.30;;;;;;;;;;4427991;32;20382;-55
2022/02/17 08:18:52;;;;;;;2.67;0.22;;;;;;;;;;4435712;32;20077;-56
2022/02/17 08:21:42;;;;;;;0.32;0.10;;;;;;;;;;4427381;32;20071;-56
2022/02/17 08:24:11;;;;;;;1.00;0.20;;;;;;;;;;4432851;32;20047;-53
2022/02/17 08:26:40;;;;;;;2.92;0.10;;;;;;;;;;4441590;32;20389;-53
2022/02/17 08:29:09;;;;;;;0.15;0.10;;;;;;;;;;4439831;32;20064;-53
2022/02/17 08:31:38;;;;;;;0.57;0.20;;;;;;;;;;4435911;32;20042;-53
2022/02/17 08:34:07;;;;;;;0.50;0.17;;;;;;;;;;4430737;32;20101;-56
2022/02/17 08:36:36;;;;;;;0.20;0.20;;;;;;;;;;4442219;32;20445;-53
2022/02/17 08:39:07;;;;;;;0.17;0.15;;;;;;;;;;4435679;32;20085;-56
2022/02/17 08:41:37;;;;;;;0.52;0.15;;;;;;;;;;4428689;32;20060;-53
2022/02/17 08:44:06;;;;;;;0.73;0.20;;;;;;;;;;4449501;32;20030;-54
2022/02/17 08:46:35;;;;;;;1.00;0.10;;;;;;;;;;4433600;32;20034;-51
2022/02/17 08:49:06;;;;;;;0.35;0.10;;;;;;;;;;4427763;32;20119;-52
2022/02/17 08:51:35;;;;;;;0.17;0.10;;;;;;;;;;4433516;32;20042;-52
2022/02/17 08:54:04;;;;;;;0.45;0.10;;;;;;;;;;4435352;32;20062;-52
2022/02/17 08:56:33;;;;;;;0.25;0.20;;;;;;;;;;4442553;32;20086;-56
2022/02/17 08:59:02;;;;;;;0.10;0.10;;;;;;;;;;4441866;32;20107;-55
2022/02/17 09:01:30;;;;;;;1.83;0.20;;;;;;;;;;4437464;32;20090;-54
2022/02/17 09:03:59;;;;;;;0.50;0.30;;;;;;;;;;4440438;32;20079;-53
2022/02/17 09:06:31;;;;;;;0.88;0.17;;;;;;;;;;4430918;32;20057;-57
2022/02/17 09:09:00;;;;;;;0.30;0.10;;;;;;;;;;4436891;32;20038;-56
2022/02/17 09:11:32;;;;;;;0.25;0.15;;;;;;;;;;4438695;32;20134;-52
2022/02/17 09:14:01;;;;;;;0.20;0.20;;;;;;;;;;4443113;32;20056;-56
2022/02/17 09:16:29;;;;;;;0.25;0.20;;;;;;;;;;4431052;32;20038;-56
2022/02/17 09:18:57;;;;;;;1.12;0.13;;;;;;;;;;4428920;32;20386;-54
2022/02/17 09:21:26;;;;;;;0.20;0.20;;;;;;;;;;4441059;32;20452;-55
2022/02/17 09:23:54;;;;;;;1.05;0.20;;;;;;;;;;4435933;32;20401;-54
2022/02/17 09:26:22;;;;;;;0.22;0.10;;;;;;;;;;4444089;32;20421;-56
2022/02/17 09:28:51;;;;;;;0.20;0.10;;;;;;;;;;4438711;32;20046;-53
2022/02/17 09:31:39;;;;;;;0.40;0.17;;;;;;;;;;4433407;32;20421;-54
2022/02/17 09:34:10;;;;;;;0.20;0.20;;;;;;;;;;4439055;32;20038;-56
2022/02/17 09:36:39;;;;;;;0.30;0.10;;;;;;;;;;4433543;32;20052;-53
2022/02/17 09:39:07;;;;;;;0.32;0.10;;;;;;;;;;4442521;32;20094;-56
2022/02/17 09:41:38;;;;;;;0.52;0.22;;;;;;;;;;4435999;32;20042;-55
2022/02/17 09:44:07;;;;;;;0.20;0.20;;;;;;;;;;4432136;32;20453;-52
2022/02/17 09:46:44;;;;;;;0.60;0.20;;;;;;;;;;4440047;32;20046;-56
2022/02/17 09:49:19;;;;;;;0.10;0.10;;;;;;;;;;4442460;32;20390;-55
2022/02/17 09:51:49;;;;;;;0.10;0.10;;;;;;;;;;4444348;32;20056;-55
2022/02/17 09:54:18;;;;;;;0.10;0.10;;;;;;;;;;4426953;32;20071;-53
2022/02/17 09:56:47;;;;;;;0.20;0.20;;;;;;;;;;4429944;32;20413;-55
2022/02/17 09:59:17;;;;;;;0.20;0.20;;;;;;;;;;4433273;32;20049;-54
2022/02/17 10:02:14;;;;;;;0.30;0.20;;;;;;;;;;4438971;32;20050;-55
2022/02/17 10:04:52;;;;;;;0.20;0.20;;;;;;;;;;4437836;32;20121;-53
2022/02/17 10:07:49;;;;;;;1.10;0.17;;;;;;;;;;4447818;32;20046;-51
2022/02/17 10:10:23;;;;;;;0.25;0.20;;;;;;;;;;4416474;32;20368;-55
2022/02/17 10:13:01;;;;;;;0.15;0.15;;;;;;;;;;4432180;32;20085;-52
2022/02/17 10:15:34;;;;;;;0.93;0.20;;;;;;;;;;4445445;32;20046;-52
2022/02/17 10:18:05;;;;;;;1.30;0.30;;;;;;;;;;4434636;32;20029;-55
2022/02/17 10:20:55;;;;;;;0.70;0.20;;;;;;;;;;4438527;32;20185;-54
2022/02/17 10:23:30;;;;;;;0.32;0.10;;;;;;;;;;4434717;32;20045;-54
2022/02/17 10:25:58;;;;;;;0.20;0.20;;;;;;;;;;4442022;32;20037;-53
2022/02/17 10:28:27;;;;;;;1.45;0.22;;;;;;;;;;4440985;32;20436;-52
2022/02/17 10:30:57;;;;;;;0.10;0.10;;;;;;;;;;4434465;32;20499;-55
2022/02/17 10:33:36;;;;;;;0.30;0.20;;;;;;;;;;4439998;32;20066;-53
2022/02/17 10:36:04;;;;;;;0.10;0.10;;;;;;;;;;4445656;32;20499;-55
2022/02/17 10:38:33;;;;;;;1.00;0.20;;;;;;;;;;4434340;32;20092;-54
2022/02/17 10:41:02;;;;;;;0.80;0.20;;;;;;;;;;4435887;32;20042;-56
2022/02/17 10:43:31;;;;;;;0.55;0.30;;;;;;;;;;4449305;32;20093;-54
2022/02/17 10:46:07;;;;;;;1.12;0.30;;;;;;;;;;4438316;32;20046;-56
2022/02/17 10:48:36;;;;;;;0.55;0.20;;;;;;;;;;4430814;32;20331;-56
2022/02/17 10:51:12;;;;;;;1.35;0.30;;;;;;;;;;4433148;32;20061;-56
2022/02/17 10:53:45;;;;;;;0.22;0.20;;;;;;;;;;4445273;32;20064;-53
2022/02/17 10:56:22;;;;;;;0.90;0.25;;;;;;;;;;4437029;32;20086;-56
2022/02/17 10:58:51;;;;;;;0.35;0.20;;;;;;;;;;4445433;32;20061;-52
2022/02/17 11:01:21;;;;;;;0.43;0.20;;;;;;;;;;4436026;32;20034;-56
2022/02/17 11:03:49;;;;;;;0.20;0.20;;;;;;;;;;4438653;32;20061;-56
2022/02/17 11:06:18;;;;;;;0.40;0.20;;;;;;;;;;4438965;32;20030;-56
2022/02/17 11:08:47;;;;;;;0.45;0.28;;;;;;;;;;4439938;32;20068;-55
2022/02/17 11:11:18;;;;;;;0.93;0.20;;;;;;;;;;4444531;32;20046;-56
2022/02/17 11:13:48;;;;;;;0.82;0.20;;;;;;;;;;4444601;32;20369;-55
2022/02/17 11:16:24;;;;;;;2.58;0.30;;;;;;;;;;4436558;32;20034;-52
2022/02/17 11:18:57;;;;;;;0.93;0.20;;;;;;;;;;4441798;32;20133;-55
2022/02/17 11:21:26;;;;;;;0.52;0.30;;;;;;;;;;4437773;32;20033;-55
2022/02/17 11:24:01;;;;;;;0.65;0.30;;;;;;;;;;4439260;32;20062;-54
2022/02/17 11:26:32;;;;;;;1.80;0.20;;;;;;;;;;4438731;32;20041;-55
2022/02/17 11:29:24;;;;;;;0.47;0.25;;;;;;;;;;4443141;32;20057;-55
2022/02/17 11:31:57;;;;;;;0.40;0.20;;;;;;;;;;4435268;32;20089;-56
2022/02/17 11:34:37;;;;;;;1.33;0.20;;;;;;;;;;4433275;32;20058;-56
2022/02/17 11:37:28;;;;;;;1.27;0.30;;;;;;;;;;4441674;32;20059;-54
2022/02/17 11:40:08;;;;;;;0.60;0.20;;;;;;;;;;4440689;32;20333;-56
2022/02/17 11:42:38;;;;;;;0.20;0.20;;;;;;;;;;4431047;32;20038;-52
2022/02/17 11:45:07;;;;;;;1.20;0.20;;;;;;;;;;4437494;32;20050;-54
2022/02/17 11:47:50;;;;;;;0.60;0.20;;;;;;;;;;4439260;32;20049;-55
2022/02/17 11:50:31;;;;;;;0.68;0.40;;;;;;;;;;4437603;32;20072;-64
2022/02/17 11:53:18;;;;;;;2.78;0.60;;;;;;;;;;4430290;32;20041;-64
2022/02/17 11:55:47;;;;;;;6.47;1.05;;;;;;;;;;4442989;32;20049;-64
2022/02/17 11:58:47;;;;;;;6.62;1.35;;;;;;;;;;4425487;32;20091;-55
2022/02/17 12:01:25;;;;;;;11.60;1.90;;;;;;;;;;4394216;32;20391;-60
2022/02/17 12:04:05;;;;;;;13.27;1.95;;;;;;;;;;4430524;32;20096;-54
2022/02/17 12:07:03;;;;;;;8.00;1.45;;;;;;;;;;4436591;32;20089;-55
2022/02/17 12:09:35;;;;;;;11.25;1.65;;;;;;;;;;4441189;32;20041;-54
2022/02/17 12:12:37;;;;;;;10.05;1.60;;;;;;;;;;4443029;32;20042;-52
2022/02/17 12:15:06;;;;;;;7.87;1.80;;;;;;;;;;4438590;32;20145;-55
2022/02/17 12:17:38;;;;;;;8.85;1.10;;;;;;;;;;4441534;32;20419;-56
2022/02/17 12:20:18;;;;;;;6.35;1.40;;;;;;;;;;4438357;32;20068;-53
2022/02/17 12:22:48;;;;;;;9.77;1.17;;;;;;;;;;4438454;32;20056;-55
2022/02/17 12:25:24;;;;;;;7.18;0.90;;;;;;;;;;4440328;32;20098;-55
2022/02/17 12:27:57;;;;;;;5.15;1.05;;;;;;;;;;4442203;32;20049;-56
2022/02/17 12:30:35;;;;;;;4.05;1.20;;;;;;;;;;4433703;32;20055;-54
2022/02/17 12:33:05;;;;;;;4.78;1.27;;;;;;;;;;4439661;32;20046;-52
2022/02/17 12:35:34;;;;;;;4.10;1.02;;;;;;;;;;4434981;32;20407;-56
2022/02/17 12:38:07;;;;;;;3.03;0.88;;;;;;;;;;4431902;32;20108;-56
2022/02/17 12:40:36;;;;;;;5.47;0.98;;;;;;;;;;4438016;32;20037;-52
2022/02/17 12:43:04;;;;;;;3.22;0.70;;;;;;;;;;4438670;32;20046;-52
2022/02/17 12:45:40;;;;;;;4.00;0.82;;;;;;;;;;4435270;32;20048;-52
2022/02/17 12:48:08;;;;;;;4.90;0.80;;;;;;;;;;4426645;32;20110;-56
2022/02/17 12:50:58;;;;;;;3.03;0.80;;;;;;;;;;4436817;32;20049;-56
2022/02/17 12:53:27;;;;;;;4.53;0.80;;;;;;;;;;4438501;32;20407;-54
2022/02/17 12:55:57;;;;;;;3.03;0.68;;;;;;;;;;4440106;32;20060;-53
2022/02/17 12:58:37;;;;;;;1.83;0.62;;;;;;;;;;4438101;32;20049;-52
2022/02/17 13:01:06;;;;;;;4.03;0.62;;;;;;;;;;4433048;32;20046;-59
2022/02/17 13:03:40;;;;;;;4.57;0.90;;;;;;;;;;4434007;32;20069;-55
2022/02/17 13:06:18;;;;;;;10.93;1.35;;;;;;;;;;4437530;32;20060;-54
2022/02/17 13:08:51;;;;;;;9.07;1.40;;;;;;;;;;4428509;32;20045;-55
2022/02/17 13:11:27;;;;;;;9.85;1.58;;;;;;;;;;4439429;32;20053;-53
2022/02/17 13:14:09;;;;;;;5.87;1.10;;;;;;;;;;4446827;32;20402;-55
2022/02/17 13:16:38;;;;;;;7.70;1.27;;;;;;;;;;4432062;32;20086;-53
2022/02/17 13:19:07;;;;;;;4.75;1.00;;;;;;;;;;4439507;32;20053;-53
2022/02/17 13:21:52;;;;;;;5.15;0.98;;;;;;;;;;4438420;32;20056;-56
2022/02/17 13:24:26;;;;;;;5.60;0.80;;;;;;;;;;4443546;32;20061;-56
2022/02/17 13:27:06;;;;;;;5.68;1.27;;;;;;;;;;4431679;32;20436;-56
2022/02/17 13:29:49;;;;;;;3.72;0.90;;;;;;;;;;4431918;32;20034;-56
2022/02/17 13:32:18;;;;;;;5.32;0.95;;;;;;;;;;4440242;32;20090;-53
2022/02/17 13:34:46;;;;;;;4.55;1.00;;;;;;;;;;4438446;32;20616;-55
2022/02/17 13:37:16;;;;;;;3.40;0.65;;;;;;;;;;4436395;32;20486;-56
2022/02/17 13:39:57;;;;;;;3.58;0.60;;;;;;;;;;4429659;32;20034;-55
2022/02/17 13:42:26;;;;;;;2.92;0.60;;;;;;;;;;4436245;32;20095;-53
2022/02/17 13:45:00;;;;;;;4.62;0.70;;;;;;;;;;4441106;32;20038;-56
2022/02/17 13:47:37;;;;;;;2.85;0.77;;;;;;;;;;4434278;32;20050;-55
2022/02/17 13:50:15;;;;;;;1.95;0.60;;;;;;;;;;4439342;32;20038;-55
2022/02/17 13:52:43;;;;;;;1.27;0.43;;;;;;;;;;4429009;32;20495;-56
2022/02/17 13:55:19;;;;;;;2.05;0.62;;;;;;;;;;4438767;32;20060;-52
2022/02/17 13:57:51;;;;;;;3.03;0.50;;;;;;;;;;4441809;32;20057;-53
2022/02/17 14:00:27;;;;;;;1.52;0.50;;;;;;;;;;4439931;32;20037;-54
2022/02/17 14:02:56;;;;;;;1.42;0.37;;;;;;;;;;4427794;32;20399;-55
2022/02/17 14:05:30;;;;;;;1.30;0.50;;;;;;;;;;4443445;32;20126;-53
2022/02/17 14:07:59;;;;;;;2.17;0.50;;;;;;;;;;4447245;32;20065;-56
2022/02/17 14:10:29;;;;;;;0.75;0.30;;;;;;;;;;4439476;32;20042;-55
2022/02/17 14:12:57;;;;;;;3.60;0.70;;;;;;;;;;4441671;32;20475;-54
2022/02/17 14:15:26;;;;;;;1.33;0.40;;;;;;;;;;4432836;32;20090;-52
2022/02/17 14:17:54;;;;;;;1.23;0.50;;;;;;;;;;4427834;32;20038;-55
2022/02/17 14:20:23;;;;;;;1.65;0.60;;;;;;;;;;4431547;32;20034;-54
2022/02/17 14:22:56;;;;;;;1.55;0.50;;;;;;;;;;4435888;32;20026;-52
2022/02/17 14:25:29;;;;;;;2.45;0.45;;;;;;;;;;4447019;32;20034;-52
2022/02/17 14:27:57;;;;;;;1.30;0.52;;;;;;;;;;4437098;32;20050;-52
2022/02/17 14:30:28;;;;;;;2.30;0.50;;;;;;;;;;4441677;32;20045;-55
2022/02/17 14:32:57;;;;;;;1.75;0.35;;;;;;;;;;4439765;32;20069;-52
2022/02/17 14:35:26;;;;;;;3.05;0.50;;;;;;;;;;4437515;32;20046;-55
2022/02/17 14:37:54;;;;;;;3.50;0.50;;;;;;;;;;4439832;32;20045;-55
2022/02/17 14:40:22;;;;;;;2.72;0.50;;;;;;;;;;4436050;32;20034;-55
2022/02/17 14:42:52;;;;;;;1.98;0.60;;;;;;;;;;4445608;32;20104;-52
2022/02/17 14:45:20;;;;;;;3.55;0.60;;;;;;;;;;4445717;32;20041;-53
2022/02/17 14:47:48;;;;;;;3.65;0.50;;;;;;;;;;4429951;32;20046;-56
2022/02/17 14:50:17;;;;;;;3.75;0.43;;;;;;;;;;4438191;32;20090;-58
2022/02/17 14:52:50;;;;;;;2.28;0.57;;;;;;;;;;4436687;32;20050;-60
2022/02/17 14:55:19;;;;;;;9.52;1.58;;;;;;;;;;4443982;32;20467;-58
2022/02/17 14:57:49;;;;;;;7.87;1.35;;;;;;;;;;4440799;32;20050;-53
2022/02/17 15:00:18;;;;;;;7.62;1.80;;;;;;;;;;4432504;32;20077;-55
2022/02/17 15:02:47;;;;;;;16.05;1.75;;;;;;;;;;4447809;32;20053;-55
2022/02/17 15:05:17;;;;;;;8.27;1.55;;;;;;;;;;4434699;32;20376;-55
2022/02/17 15:07:45;;;;;;;7.70;1.30;;;;;;;;;;4441608;32;20042;-51